Morobay, Arkansas
Current Conditions -  °F | °C
As of 8:53 PM on Thursday 18 Dec 2014 (Local Time) from KELD Reporting Station
Overcast Overcast  
Wind Chill: 44°   Ceiling: 600
Heat Index: 47°   Visibility: 9mi
Dew Point: 45°   Wind: 6mph
Humidity: 93%   Direction: 30°NNE
Pressure: 30.2"   Gusts: NA
Location:  33.3475°N, 92.2859°W
Report Text: KELD 190253Z AUTO 03005KT 9SM OVC006 08/07 A3020 RMK AO2 SLP226 T00830072 53011
Loading
Personal Weather Stations






























Interactive Weather Map New forecast layout! Learn more

10-Day Weather Forecast

Advertisements
Track Severe Weather on mobile